Time;durP1;ratioP1;P1;durP2;ratioP2;P2;SDS_P1;SDS_P2;PMS_P1;PMS_P2;Temp;Humidity;BMP_temperature;BMP_pressure;BME280_temperature;BME280_humidity;BME280_pressure;Samples;Min_cycle;Max_cycle;Signal;HPM_P1;HPM_P2
2021/09/06 00:00:36;;;;;;;4.33;2.80;;;15.20;99.90;;;;;;5034086;28;20425;-70
2021/09/06 00:03:01;;;;;;;3.83;3.37;;;15.10;99.90;;;;;;5034297;28;20457;-70
2021/09/06 00:05:27;;;;;;;6.63;3.30;;;15.10;99.90;;;;;;5034560;28;20168;-70
2021/09/06 00:07:52;;;;;;;3.50;2.60;;;15.00;99.90;;;;;;5033794;28;20271;-71
2021/09/06 00:10:25;;;;;;;3.83;2.70;;;15.00;99.90;;;;;;5033912;28;20184;-70
2021/09/06 00:12:50;;;;;;;5.43;3.47;;;15.00;99.90;;;;;;5033524;28;20283;-70
2021/09/06 00:15:16;;;;;;;4.07;3.67;;;14.90;99.90;;;;;;5034082;28;20702;-70
2021/09/06 00:17:41;;;;;;;4.20;2.80;;;14.90;99.90;;;;;;5034029;28;20536;-70
2021/09/06 00:20:07;;;;;;;9.73;2.93;;;14.90;99.90;;;;;;5033659;28;20174;-69
2021/09/06 00:22:33;;;;;;;3.47;2.87;;;14.90;99.90;;;;;;5033481;28;20649;-69
2021/09/06 00:24:58;;;;;;;4.83;3.00;;;14.80;99.90;;;;;;5033766;28;20415;-70
2021/09/06 00:27:24;;;;;;;3.50;2.97;;;14.80;99.90;;;;;;5033261;28;20191;-69
2021/09/06 00:29:49;;;;;;;7.43;3.40;;;14.70;99.90;;;;;;5033641;28;20180;-69
2021/09/06 00:32:15;;;;;;;4.00;3.33;;;14.70;99.90;;;;;;5033379;28;20168;-69
2021/09/06 00:34:40;;;;;;;5.10;3.90;;;14.70;99.90;;;;;;5033360;28;20188;-69
2021/09/06 00:37:05;;;;;;;4.77;3.20;;;14.60;99.90;;;;;;5033204;28;20163;-69
2021/09/06 00:39:31;;;;;;;3.30;2.70;;;14.60;99.90;;;;;;5033318;28;20182;-70
2021/09/06 00:41:56;;;;;;;3.90;3.00;;;14.70;99.90;;;;;;5015073;28;20180;-69
2021/09/06 00:44:22;;;;;;;4.10;2.80;;;14.60;99.90;;;;;;5033265;28;20214;-69
2021/09/06 00:46:48;;;;;;;5.57;3.53;;;14.50;99.90;;;;;;5033141;28;20591;-69
2021/09/06 00:49:16;;;;;;;3.23;2.93;;;14.50;99.90;;;;;;5033159;28;20168;-70
2021/09/06 00:51:41;;;;;;;2.90;2.60;;;14.50;99.90;;;;;;5032762;28;20406;-70
2021/09/06 00:54:07;;;;;;;5.07;3.00;;;14.40;99.90;;;;;;5032753;28;20456;-69
2021/09/06 00:56:34;;;;;;;4.07;3.50;;;14.40;99.90;;;;;;5032831;28;20228;-70
2021/09/06 00:59:00;;;;;;;4.30;2.83;;;14.40;99.90;;;;;;5032782;28;20415;-68
2021/09/06 01:01:26;;;;;;;4.23;3.00;;;14.40;99.90;;;;;;5032736;28;20421;-69
2021/09/06 01:03:51;;;;;;;3.40;2.90;;;14.30;99.90;;;;;;5032554;28;20462;-70
2021/09/06 01:06:17;;;;;;;4.93;3.53;;;14.40;99.90;;;;;;5033062;28;20202;-71
2021/09/06 01:08:42;;;;;;;4.20;3.20;;;14.30;99.90;;;;;;5032133;28;20172;-69
2021/09/06 01:11:08;;;;;;;4.83;3.33;;;14.30;99.90;;;;;;5032756;28;20168;-70
2021/09/06 01:13:33;;;;;;;4.20;3.20;;;14.30;99.90;;;;;;5032356;28;20326;-70
2021/09/06 01:15:59;;;;;;;4.70;2.93;;;14.20;99.90;;;;;;5031143;28;20226;-69
2021/09/06 01:18:24;;;;;;;3.63;3.20;;;14.20;99.90;;;;;;5032560;28;20175;-69
2021/09/06 01:20:50;;;;;;;4.87;2.93;;;14.10;99.90;;;;;;5032453;28;20174;-70
2021/09/06 01:23:15;;;;;;;3.77;2.63;;;14.10;99.90;;;;;;5032242;28;20285;-69
2021/09/06 01:25:41;;;;;;;3.80;2.90;;;14.10;99.90;;;;;;5032524;28;20252;-70
2021/09/06 01:28:06;;;;;;;3.80;3.30;;;14.10;99.90;;;;;;5032239;28;20262;-69
2021/09/06 01:30:32;;;;;;;3.53;2.93;;;14.10;99.90;;;;;;5032250;28;20228;-70
2021/09/06 01:32:57;;;;;;;4.23;3.43;;;14.00;99.90;;;;;;5032010;28;20191;-69
2021/09/06 01:35:23;;;;;;;5.87;4.30;;;14.00;99.90;;;;;;5031875;28;20548;-70
2021/09/06 01:37:48;;;;;;;6.30;3.83;;;14.00;99.90;;;;;;5031927;28;20175;-70
2021/09/06 01:40:14;;;;;;;3.57;3.10;;;14.00;99.90;;;;;;5031909;28;20174;-69
2021/09/06 01:42:39;;;;;;;3.43;2.90;;;13.90;99.90;;;;;;5031784;28;20206;-69
2021/09/06 01:45:06;;;;;;;7.03;3.57;;;13.90;99.90;;;;;;5031854;28;20172;-69
2021/09/06 01:47:31;;;;;;;5.10;3.00;;;13.90;99.90;;;;;;5031867;28;20257;-69
2021/09/06 01:49:57;;;;;;;4.30;2.87;;;13.90;99.90;;;;;;5032439;28;20453;-69
2021/09/06 01:52:24;;;;;;;3.90;2.70;;;13.90;99.90;;;;;;5032095;28;20182;-69
2021/09/06 01:54:49;;;;;;;5.47;3.80;;;13.90;99.90;;;;;;5032304;28;20195;-70
2021/09/06 01:57:15;;;;;;;4.03;3.00;;;13.80;99.90;;;;;;5031955;28;20646;-70
2021/09/06 01:59:41;;;;;;;4.90;3.43;;;13.80;99.90;;;;;;5014201;28;20207;-69
2021/09/06 02:02:06;;;;;;;3.37;3.07;;;13.70;99.90;;;;;;5032078;28;20270;-69
2021/09/06 02:04:32;;;;;;;3.97;3.57;;;13.80;99.90;;;;;;5031544;28;20192;-69
2021/09/06 02:06:57;;;;;;;4.00;3.60;;;13.70;99.90;;;;;;5031600;28;20178;-69
2021/09/06 02:09:22;;;;;;;3.57;3.27;;;13.70;99.90;;;;;;5031623;28;20199;-69
2021/09/06 02:11:48;;;;;;;5.00;3.63;;;13.70;99.90;;;;;;5031656;28;20168;-71
2021/09/06 02:14:13;;;;;;;3.60;3.13;;;13.60;99.90;;;;;;5031463;28;20191;-70
2021/09/06 02:16:39;;;;;;;3.37;3.07;;;13.70;99.90;;;;;;5031624;28;20175;-69
2021/09/06 02:19:04;;;;;;;4.33;3.27;;;13.60;99.90;;;;;;5031213;28;20521;-69
2021/09/06 02:21:30;;;;;;;3.60;3.30;;;13.60;99.90;;;;;;5031037;28;20753;-72
2021/09/06 02:23:59;;;;;;;7.03;3.43;;;13.50;99.90;;;;;;5031317;28;20224;-70
2021/09/06 02:26:24;;;;;;;3.27;2.90;;;13.50;99.90;;;;;;5031525;28;20263;-70
2021/09/06 02:28:50;;;;;;;4.53;3.53;;;13.50;99.90;;;;;;5031135;28;20434;-70
2021/09/06 02:31:15;;;;;;;3.60;2.80;;;13.50;99.90;;;;;;5031313;28;20167;-69
2021/09/06 02:33:41;;;;;;;6.70;3.20;;;13.40;99.90;;;;;;5031371;28;20191;-68
2021/09/06 02:36:06;;;;;;;6.50;3.40;;;13.40;99.90;;;;;;5031638;28;20183;-70
2021/09/06 02:38:32;;;;;;;4.17;3.23;;;13.40;99.90;;;;;;5031759;28;20668;-69
2021/09/06 02:40:57;;;;;;;5.03;3.60;;;13.40;99.90;;;;;;5031566;28;20168;-70
2021/09/06 02:43:23;;;;;;;3.77;3.40;;;13.40;99.90;;;;;;5031567;28;20703;-70
2021/09/06 02:45:48;;;;;;;3.60;3.27;;;13.30;99.90;;;;;;5031961;28;20521;-69
2021/09/06 02:48:14;;;;;;;4.40;3.87;;;13.30;99.90;;;;;;5031111;28;20203;-69
2021/09/06 02:50:39;;;;;;;4.53;3.73;;;13.30;99.90;;;;;;5031457;28;20176;-70
2021/09/06 02:53:05;;;;;;;4.50;3.13;;;13.30;99.90;;;;;;5030966;28;20197;-69
2021/09/06 02:55:30;;;;;;;4.23;3.83;;;13.30;99.90;;;;;;5031609;28;20647;-68
2021/09/06 02:57:56;;;;;;;5.43;3.03;;;13.30;99.90;;;;;;5031228;28;20171;-68
2021/09/06 03:00:22;;;;;;;3.87;3.47;;;13.30;99.90;;;;;;5031423;28;20191;-70
2021/09/06 03:02:48;;;;;;;3.60;3.30;;;13.20;99.90;;;;;;5030956;28;20237;-67
2021/09/06 03:05:13;;;;;;;5.87;3.77;;;13.20;99.90;;;;;;5031223;28;20467;-69
2021/09/06 03:07:39;;;;;;;4.50;3.70;;;13.20;99.90;;;;;;5031233;28;20170;-69
2021/09/06 03:10:04;;;;;;;4.00;3.60;;;13.10;99.90;;;;;;5031063;28;20164;-68
2021/09/06 03:12:30;;;;;;;5.60;4.53;;;13.20;99.90;;;;;;5013447;28;20182;-68
2021/09/06 03:14:55;;;;;;;7.30;6.40;;;13.10;99.90;;;;;;5031197;28;20202;-69
2021/09/06 03:17:21;;;;;;;3.60;3.30;;;13.10;99.90;;;;;;5031034;28;20175;-69
2021/09/06 03:19:46;;;;;;;5.10;3.83;;;13.10;99.90;;;;;;5031222;28;20180;-69
2021/09/06 03:22:12;;;;;;;5.87;3.83;;;13.00;99.90;;;;;;5031094;28;20203;-70
2021/09/06 03:24:37;;;;;;;5.60;3.90;;;13.00;99.90;;;;;;5031428;28;20271;-69
2021/09/06 03:27:03;;;;;;;4.53;3.63;;;13.00;99.90;;;;;;5013372;28;20626;-69
2021/09/06 03:29:28;;;;;;;4.00;3.37;;;13.00;99.90;;;;;;5031057;28;20171;-70
2021/09/06 03:31:54;;;;;;;3.70;3.13;;;13.00;99.90;;;;;;5031490;28;20167;-70
2021/09/06 03:34:20;;;;;;;3.80;3.40;;;13.00;99.90;;;;;;5035109;28;20190;-70
2021/09/06 03:36:45;;;;;;;6.07;3.63;;;13.00;99.90;;;;;;5034554;28;20183;-70
2021/09/06 03:39:11;;;;;;;4.70;3.27;;;12.90;99.90;;;;;;5034536;28;20174;-70
2021/09/06 03:41:36;;;;;;;4.00;3.47;;;12.80;99.90;;;;;;5034492;28;20608;-70
2021/09/06 03:44:02;;;;;;;4.97;3.60;;;12.80;99.90;;;;;;5034278;28;20239;-70
2021/09/06 03:46:27;;;;;;;4.90;3.70;;;12.80;99.90;;;;;;5034358;28;20622;-67
2021/09/06 03:48:52;;;;;;;4.07;3.60;;;12.80;99.90;;;;;;5033902;28;20647;-68
2021/09/06 03:51:18;;;;;;;4.67;3.50;;;12.70;99.90;;;;;;5034080;28;20174;-69
2021/09/06 03:53:43;;;;;;;4.90;4.00;;;12.70;99.90;;;;;;5034100;28;20337;-70
2021/09/06 03:56:09;;;;;;;5.10;3.67;;;12.70;99.90;;;;;;5034126;28;20534;-69
2021/09/06 03:58:34;;;;;;;3.83;3.47;;;12.70;99.90;;;;;;5034076;28;20274;-69
2021/09/06 04:01:00;;;;;;;3.90;3.60;;;12.70;99.90;;;;;;5034059;28;20604;-67
2021/09/06 04:03:25;;;;;;;6.73;3.77;;;12.70;99.90;;;;;;5034228;28;20214;-69
2021/09/06 04:05:51;;;;;;;5.57;4.10;;;12.60;99.90;;;;;;5034063;28;20678;-69
2021/09/06 04:08:16;;;;;;;4.17;3.77;;;12.60;99.90;;;;;;5033700;28;20542;-68
2021/09/06 04:10:42;;;;;;;5.00;3.33;;;12.60;99.90;;;;;;5034592;28;20206;-69
2021/09/06 04:13:07;;;;;;;5.00;4.10;;;12.50;99.90;;;;;;5034381;28;20589;-71
2021/09/06 04:15:33;;;;;;;5.37;3.37;;;12.50;99.90;;;;;;5035035;28;20570;-69
2021/09/06 04:17:58;;;;;;;7.23;4.00;;;12.50;99.90;;;;;;5033933;28;20310;-67
2021/09/06 04:20:24;;;;;;;5.13;3.20;;;12.50;99.90;;;;;;5034596;28;20264;-69
2021/09/06 04:22:49;;;;;;;4.20;3.63;;;12.50;99.90;;;;;;5033700;28;20195;-70
2021/09/06 04:25:15;;;;;;;7.37;4.40;;;12.40;99.90;;;;;;5033535;28;20250;-70
2021/09/06 04:27:40;;;;;;;5.73;4.47;;;12.40;99.90;;;;;;5033838;28;20247;-70
2021/09/06 04:30:06;;;;;;;5.80;4.00;;;12.40;99.90;;;;;;5033972;28;20248;-70
2021/09/06 04:32:31;;;;;;;6.00;4.13;;;12.40;99.90;;;;;;5033846;28;20199;-69
2021/09/06 04:34:57;;;;;;;4.47;4.03;;;12.40;99.90;;;;;;5033955;28;20175;-69
2021/09/06 04:37:23;;;;;;;4.10;3.70;;;12.40;99.90;;;;;;5033297;28;20526;-69
2021/09/06 04:39:48;;;;;;;6.03;4.60;;;12.40;99.90;;;;;;5033377;28;20253;-69
2021/09/06 04:42:14;;;;;;;6.03;4.27;;;12.40;99.90;;;;;;5033089;28;20183;-69
2021/09/06 04:44:39;;;;;;;5.60;4.47;;;12.40;99.90;;;;;;5033051;28;20240;-69
2021/09/06 04:47:05;;;;;;;5.43;4.10;;;12.40;99.90;;;;;;5033088;28;20168;-69
2021/09/06 04:49:30;;;;;;;4.60;3.57;;;12.40;99.90;;;;;;5033486;28;20164;-69
2021/09/06 04:51:56;;;;;;;5.10;4.27;;;12.40;99.90;;;;;;5033072;28;20298;-69
2021/09/06 04:54:21;;;;;;;9.03;3.93;;;12.40;99.90;;;;;;5032892;28;20214;-69
2021/09/06 04:56:47;;;;;;;7.90;4.57;;;12.40;99.90;;;;;;5032772;28;20163;-70
2021/09/06 04:59:13;;;;;;;5.93;4.23;;;12.40;99.90;;;;;;5033071;28;20173;-69
2021/09/06 05:01:38;;;;;;;5.43;4.13;;;12.40;99.90;;;;;;5032884;28;20226;-69
2021/09/06 05:04:04;;;;;;;4.93;4.43;;;12.50;99.90;;;;;;5032919;28;20196;-70
2021/09/06 05:06:30;;;;;;;5.30;4.10;;;12.40;99.90;;;;;;5033066;28;20206;-70
2021/09/06 05:08:57;;;;;;;4.77;4.33;;;12.50;99.90;;;;;;5033421;28;20831;-69
2021/09/06 05:11:23;;;;;;;3.87;3.53;;;12.50;99.90;;;;;;5032506;28;20402;-70
2021/09/06 05:13:48;;;;;;;5.93;4.13;;;12.50;99.90;;;;;;5032381;28;20422;-70
2021/09/06 05:16:14;;;;;;;11.33;4.50;;;12.60;99.90;;;;;;5032464;28;20175;-70
2021/09/06 05:18:39;;;;;;;6.10;3.97;;;12.60;99.90;;;;;;5033342;28;20306;-70
2021/09/06 05:21:05;;;;;;;6.63;4.63;;;12.70;99.90;;;;;;5032799;28;20176;-69
2021/09/06 05:23:30;;;;;;;6.90;4.30;;;12.70;99.90;;;;;;5032897;28;20288;-68
2021/09/06 05:25:55;;;;;;;4.70;4.27;;;12.70;99.90;;;;;;5032676;28;20179;-69
2021/09/06 05:28:21;;;;;;;6.63;4.50;;;12.80;99.90;;;;;;5032617;28;20679;-69
2021/09/06 05:30:46;;;;;;;5.20;4.30;;;12.80;99.90;;;;;;5032408;28;20286;-70
2021/09/06 05:33:12;;;;;;;9.53;5.17;;;12.80;99.90;;;;;;5031986;28;20196;-70
2021/09/06 05:35:38;;;;;;;5.07;4.33;;;12.90;99.90;;;;;;5032013;28;20648;-70
2021/09/06 05:38:03;;;;;;;5.33;4.50;;;12.90;99.90;;;;;;5031874;28;20183;-68
2021/09/06 05:40:29;;;;;;;7.10;5.60;;;13.00;99.90;;;;;;5031960;28;20635;-69
2021/09/06 05:42:55;;;;;;;5.60;4.60;;;13.10;99.90;;;;;;5032523;28;20214;-69
2021/09/06 05:45:21;;;;;;;4.87;3.90;;;13.20;99.90;;;;;;5033063;28;20373;-71
2021/09/06 05:47:46;;;;;;;6.80;4.07;;;13.60;99.90;;;;;;5032763;28;20466;-69
2021/09/06 05:50:17;;;;;;;5.47;4.33;;;14.20;99.90;;;;;;5032895;28;20195;-70
2021/09/06 05:52:43;;;;;;;4.90;3.70;;;14.50;99.90;;;;;;5032673;28;20192;-69
2021/09/06 05:55:09;;;;;;;6.30;5.27;;;14.40;99.90;;;;;;5014304;28;20922;-69
2021/09/06 05:57:34;;;;;;;4.13;3.83;;;15.10;99.90;;;;;;5032025;28;20416;-69
2021/09/06 06:00:00;;;;;;;6.70;4.53;;;15.40;99.90;;;;;;5032256;28;20648;-70
2021/09/06 06:02:25;;;;;;;4.80;4.00;;;15.70;99.90;;;;;;5032057;28;20178;-69
2021/09/06 06:04:51;;;;;;;4.13;3.70;;;16.00;99.90;;;;;;5032026;28;20175;-70
2021/09/06 06:07:16;;;;;;;5.07;3.70;;;16.60;99.90;;;;;;5031718;28;20199;-69
2021/09/06 06:09:42;;;;;;;4.00;3.60;;;16.80;99.90;;;;;;5032043;28;20594;-69
2021/09/06 06:12:07;;;;;;;5.80;4.00;;;17.30;99.90;;;;;;5031655;28;20221;-70
2021/09/06 06:14:33;;;;;;;3.57;3.27;;;17.50;99.90;;;;;;5031695;28;20282;-70
2021/09/06 06:16:58;;;;;;;3.73;3.30;;;17.80;99.90;;;;;;5031941;28;20239;-69
2021/09/06 06:19:23;;;;;;;6.20;4.40;;;17.30;99.90;;;;;;5031605;28;20195;-70
2021/09/06 06:21:49;;;;;;;5.27;3.07;;;18.00;99.90;;;;;;5031763;28;20510;-70
2021/09/06 06:24:14;;;;;;;4.97;3.60;;;18.20;99.90;;;;;;5031665;28;20199;-70
2021/09/06 06:26:40;;;;;;;5.63;3.53;;;18.70;99.90;;;;;;5031714;28;20513;-70
2021/09/06 06:29:05;;;;;;;4.77;4.00;;;18.70;99.90;;;;;;5031497;28;20313;-70
2021/09/06 06:31:31;;;;;;;8.50;4.10;;;18.00;99.90;;;;;;5031790;28;20625;-70
2021/09/06 06:33:56;;;;;;;5.20;3.40;;;18.70;99.90;;;;;;5031777;28;20321;-69
2021/09/06 06:36:22;;;;;;;5.33;3.70;;;18.50;99.90;;;;;;5031478;28;20184;-70
2021/09/06 06:38:49;;;;;;;6.43;3.63;;;19.10;99.90;;;;;;5032145;28;20321;-69
2021/09/06 06:41:15;;;;;;;4.80;3.80;;;19.30;99.90;;;;;;5031872;28;20229;-69
2021/09/06 06:43:42;;;;;;;5.70;4.47;;;19.40;99.90;;;;;;5031772;28;20550;-69
2021/09/06 06:46:07;;;;;;;9.67;5.33;;;19.30;99.90;;;;;;5031969;28;20413;-70
2021/09/06 06:48:33;;;;;;;7.07;4.37;;;19.80;99.90;;;;;;5031835;28;20763;-69
2021/09/06 06:50:58;;;;;;;6.67;4.17;;;19.60;99.90;;;;;;5032005;28;20293;-70
2021/09/06 06:53:24;;;;;;;6.47;4.03;;;19.80;99.90;;;;;;5031237;28;20511;-70
2021/09/06 06:55:49;;;;;;;4.50;3.60;;;19.20;99.90;;;;;;5031979;28;20251;-70
2021/09/06 06:58:14;;;;;;;4.57;3.70;;;19.40;99.90;;;;;;5031293;28;20168;-70
2021/09/06 07:00:40;;;;;;;5.37;4.40;;;20.50;99.90;;;;;;5031943;28;20203;-70
2021/09/06 07:03:05;;;;;;;4.90;3.80;;;19.80;99.90;;;;;;5032095;28;20249;-70
2021/09/06 07:05:31;;;;;;;9.13;3.80;;;20.20;99.90;;;;;;5032405;28;20680;-70
2021/09/06 07:07:56;;;;;;;6.50;4.20;;;19.20;99.90;;;;;;5034015;28;20186;-70
2021/09/06 07:10:22;;;;;;;6.00;3.80;;;20.00;99.90;;;;;;5036062;28;20213;-70
2021/09/06 07:12:47;;;;;;;5.80;4.10;;;20.90;99.90;;;;;;5035383;28;20199;-69
2021/09/06 07:15:13;;;;;;;8.27;3.90;;;20.20;99.90;;;;;;5035256;28;20197;-69
2021/09/06 07:17:38;;;;;;;5.23;3.50;;;20.60;99.90;;;;;;5034427;28;20175;-69
2021/09/06 07:20:05;;;;;;;4.50;3.67;;;21.10;99.90;;;;;;5034668;28;20167;-69
2021/09/06 07:22:30;;;;;;;4.70;3.90;;;21.30;99.90;;;;;;5034787;28;20206;-70
2021/09/06 07:24:56;;;;;;;5.90;3.70;;;20.60;99.90;;;;;;5034369;28;20573;-70
2021/09/06 07:27:22;;;;;;;4.17;3.77;;;20.60;99.90;;;;;;5034653;28;20242;-69
2021/09/06 07:29:48;;;;;;;5.27;3.87;;;20.30;99.90;;;;;;5035600;28;20171;-69
2021/09/06 07:32:13;;;;;;;5.17;4.00;;;21.20;99.90;;;;;;5034964;28;20420;-69
2021/09/06 07:34:39;;;;;;;4.70;4.30;;;20.30;99.90;;;;;;5034709;28;20626;-68
2021/09/06 07:37:06;;;;;;;4.27;3.87;;;21.60;99.90;;;;;;5034193;28;20175;-69
2021/09/06 07:39:33;;;;;;;4.90;4.20;;;21.80;99.90;;;;;;5034223;28;20587;-69
2021/09/06 07:41:58;;;;;;;4.13;3.70;;;22.60;99.90;;;;;;5033912;28;20483;-70
2021/09/06 07:44:24;;;;;;;5.70;3.93;;;21.40;99.90;;;;;;5034025;28;20469;-69
2021/09/06 07:46:53;;;;;;;5.63;3.77;;;22.30;99.90;;;;;;5034013;28;20168;-70
2021/09/06 07:49:19;;;;;;;7.57;4.33;;;21.70;99.90;;;;;;5034311;28;20402;-70
2021/09/06 07:51:54;;;;;;;8.77;4.20;;;21.30;99.90;;;;;;5034282;28;20771;-69
2021/09/06 07:54:24;;;;;;;8.20;4.57;;;21.10;99.90;;;;;;5034456;28;20445;-69
2021/09/06 07:56:51;;;;;;;6.20;4.17;;;21.90;99.90;;;;;;5034025;28;20407;-70
2021/09/06 07:59:17;;;;;;;4.73;4.23;;;22.60;99.90;;;;;;5034326;28;20413;-69
2021/09/06 08:01:44;;;;;;;6.33;3.70;;;22.50;99.90;;;;;;5033846;28;20418;-70
2021/09/06 08:04:10;;;;;;;6.97;5.17;;;22.80;99.90;;;;;;5034184;28;20230;-69
2021/09/06 08:06:35;;;;;;;5.17;4.40;;;22.40;99.90;;;;;;5033763;28;20403;-69
2021/09/06 08:09:02;;;;;;;7.23;4.10;;;21.50;99.90;;;;;;5033810;28;20872;-70
2021/09/06 08:11:27;;;;;;;6.10;4.27;;;22.00;99.90;;;;;;5033643;28;20579;-69
2021/09/06 08:13:53;;;;;;;6.53;5.10;;;22.90;99.90;;;;;;5033996;28;20514;-70
2021/09/06 08:16:18;;;;;;;5.60;4.87;;;23.30;99.90;;;;;;5034337;28;20168;-70
2021/09/06 08:18:44;;;;;;;6.00;5.00;;;23.00;99.90;;;;;;5033364;28;20171;-70
2021/09/06 08:21:09;;;;;;;6.83;4.63;;;21.50;99.90;;;;;;5033982;28;20542;-69
2021/09/06 08:23:35;;;;;;;7.57;4.10;;;21.20;99.90;;;;;;5033749;28;20274;-69
2021/09/06 08:26:00;;;;;;;9.40;5.40;;;21.60;99.90;;;;;;5033596;28;20541;-70
2021/09/06 08:28:26;;;;;;;4.77;4.33;;;22.80;99.90;;;;;;5033732;28;20237;-69
2021/09/06 08:30:52;;;;;;;8.70;4.60;;;22.00;99.90;;;;;;5033555;28;20639;-70
2021/09/06 08:33:18;;;;;;;5.73;4.37;;;22.00;99.90;;;;;;5033403;28;20249;-69
2021/09/06 08:35:45;;;;;;;4.63;4.10;;;22.40;99.90;;;;;;5033954;28;20164;-70
2021/09/06 08:38:11;;;;;;;8.63;4.93;;;22.90;99.90;;;;;;5033597;28;20908;-69
2021/09/06 08:40:37;;;;;;;7.00;4.97;;;23.80;99.90;;;;;;5033628;28;20414;-69
2021/09/06 08:43:04;;;;;;;8.57;5.93;;;23.90;99.90;;;;;;5033360;28;20713;-69
2021/09/06 08:45:33;;;;;;;5.47;4.10;;;23.30;99.90;;;;;;5033479;28;20405;-70
2021/09/06 08:47:59;;;;;;;6.37;5.40;;;21.50;99.90;;;;;;5033117;28;20419;-68
2021/09/06 08:50:25;;;;;;;6.07;5.47;;;22.40;99.90;;;;;;5033195;28;20448;-70
2021/09/06 08:52:50;;;;;;;7.27;5.40;;;24.00;99.90;;;;;;5032871;28;20187;-70
2021/09/06 08:55:16;;;;;;;22.57;6.27;;;24.30;99.90;;;;;;5033246;28;20838;-70
2021/09/06 08:57:42;;;;;;;6.20;5.60;;;23.80;99.90;;;;;;5033011;28;20175;-69
2021/09/06 09:00:10;;;;;;;6.70;6.00;;;23.90;99.90;;;;;;5033141;28;20572;-69
2021/09/06 09:02:35;;;;;;;6.27;5.67;;;23.80;99.90;;;;;;5033081;28;20176;-69
2021/09/06 09:05:10;;;;;;;6.33;5.73;;;24.40;99.90;;;;;;5032969;28;20457;-69
2021/09/06 09:07:39;;;;;;;7.80;6.07;;;24.20;99.90;;;;;;5032728;28;20163;-70
2021/09/06 09:10:08;;;;;;;7.63;6.23;;;24.30;99.90;;;;;;5032866;28;20425;-69
2021/09/06 09:12:34;;;;;;;8.47;6.50;;;24.50;99.90;;;;;;5032860;28;20406;-69
2021/09/06 09:15:00;;;;;;;6.83;6.13;;;23.70;99.90;;;;;;5033075;28;20804;-68
2021/09/06 09:17:26;;;;;;;8.27;6.00;;;23.50;99.90;;;;;;5032564;28;20258;-69
2021/09/06 09:19:53;;;;;;;8.80;6.20;;;22.00;99.90;;;;;;5032443;28;20406;-68
2021/09/06 09:22:34;;;;;;;9.80;5.40;;;22.80;99.90;;;;;;5032541;28;20401;-69
2021/09/06 09:25:02;;;;;;;6.17;5.47;;;23.40;99.90;;;;;;5032819;28;20418;-70
2021/09/06 09:27:31;;;;;;;8.63;6.30;;;23.70;99.90;;;;;;5032543;28;20442;-70
2021/09/06 09:29:57;;;;;;;6.77;6.07;;;24.40;99.90;;;;;;5031495;28;20402;-70
2021/09/06 09:32:23;;;;;;;7.70;6.67;;;24.40;99.90;;;;;;5032205;28;20815;-70
2021/09/06 09:34:48;;;;;;;6.80;6.20;;;23.80;99.90;;;;;;5032533;28;20446;-70
2021/09/06 09:37:24;;;;;;;7.70;5.30;;;23.70;99.90;;;;;;5032171;28;20179;-69
2021/09/06 09:39:57;;;;;;;7.40;6.00;;;23.90;99.90;;;;;;5032391;28;20190;-70
2021/09/06 09:42:24;;;;;;;5.97;4.97;;;23.90;99.90;;;;;;5032614;28;20406;-69
2021/09/06 09:44:55;;;;;;;7.37;5.40;;;23.20;99.90;;;;;;5032011;28;20413;-69
2021/09/06 09:47:23;;;;;;;6.27;5.60;;;23.00;99.90;;;;;;5032099;28;20442;-69
2021/09/06 09:49:50;;;;;;;6.60;6.00;;;22.60;99.90;;;;;;5032085;28;20788;-69
2021/09/06 09:52:18;;;;;;;10.27;5.87;;;22.10;99.90;;;;;;5031959;28;20413;-70
2021/09/06 09:54:45;;;;;;;8.57;6.50;;;22.50;99.90;;;;;;5031915;28;20468;-68
2021/09/06 09:57:12;;;;;;;7.87;7.03;;;21.80;99.90;;;;;;5032051;28;20775;-70
2021/09/06 09:59:37;;;;;;;6.93;6.03;;;22.40;99.90;;;;;;5032014;28;20907;-68
2021/09/06 10:02:15;;;;;;;7.67;5.60;;;22.70;99.90;;;;;;5031669;28;20422;-68
2021/09/06 10:04:53;;;;;;;8.37;7.10;;;22.60;99.90;;;;;;5031797;28;20638;-69
2021/09/06 10:07:22;;;;;;;12.13;6.83;;;22.80;99.90;;;;;;5031592;28;20410;-69
2021/09/06 10:09:49;;;;;;;8.27;7.57;;;22.70;99.90;;;;;;5031594;28;20438;-68
2021/09/06 10:12:33;;;;;;;9.57;7.53;;;22.70;99.90;;;;;;5031565;28;20921;-69
2021/09/06 10:15:04;;;;;;;7.90;7.07;;;21.30;99.90;;;;;;5031954;28;20401;-67
2021/09/06 10:17:47;;;;;;;8.87;6.13;;;21.10;99.90;;;;;;5013720;28;20426;-68
2021/09/06 10:20:12;;;;;;;14.50;7.40;;;21.20;99.90;;;;;;5031642;28;20492;-68
2021/09/06 10:22:42;;;;;;;8.03;5.60;;;21.30;99.90;;;;;;5031400;28;20482;-69
2021/09/06 10:25:10;;;;;;;11.20;7.17;;;21.70;99.90;;;;;;5031595;28;20587;-69
2021/09/06 10:27:37;;;;;;;11.20;7.20;;;21.70;99.90;;;;;;5031317;28;20501;-68
2021/09/06 10:30:06;;;;;;;8.50;6.40;;;21.10;99.90;;;;;;5031454;28;20484;-69
2021/09/06 10:32:44;;;;;;;8.00;6.30;;;21.30;99.90;;;;;;5031314;28;20971;-68
2021/09/06 10:35:30;;;;;;;8.37;6.93;;;21.60;99.90;;;;;;5031252;28;20408;-69
2021/09/06 10:38:10;;;;;;;7.57;6.40;;;21.90;99.90;;;;;;5031263;28;20475;-68
2021/09/06 10:40:38;;;;;;;8.47;6.53;;;21.90;99.90;;;;;;5031364;28;20439;-68
2021/09/06 10:43:18;;;;;;;6.80;6.13;;;21.80;99.90;;;;;;5035180;28;20971;-69
2021/09/06 10:45:47;;;;;;;7.40;5.67;;;22.20;99.90;;;;;;5035593;28;20453;-69
2021/09/06 10:48:19;;;;;;;7.40;6.70;;;21.90;99.90;;;;;;5035341;28;20403;-70
2021/09/06 10:50:46;;;;;;;9.20;8.20;;;21.70;99.90;;;;;;5035432;28;20414;-69
2021/09/06 10:53:17;;;;;;;10.47;7.07;;;21.90;99.90;;;;;;5035281;28;20791;-70
2021/09/06 10:55:48;;;;;;;13.00;7.70;;;22.10;99.90;;;;;;5035384;28;20422;-70
2021/09/06 10:58:14;;;;;;;11.43;7.47;;;22.10;99.90;;;;;;5035182;28;20511;-70
2021/09/06 11:00:39;;;;;;;9.83;7.63;;;22.10;99.90;;;;;;5017521;28;20817;-70
2021/09/06 11:03:06;;;;;;;8.80;5.53;;;21.70;99.90;;;;;;5035041;28;20205;-68
2021/09/06 11:05:31;;;;;;;9.63;7.03;;;22.00;99.90;;;;;;5035221;28;20176;-69
2021/09/06 11:08:05;;;;;;;8.50;6.87;;;22.00;99.90;;;;;;5035208;28;20411;-68
2021/09/06 11:10:32;;;;;;;10.00;7.20;;;22.30;99.90;;;;;;5035224;28;20180;-68
2021/09/06 11:12:59;;;;;;;7.13;6.43;;;21.80;99.90;;;;;;5034917;28;20438;-68
2021/09/06 11:15:27;;;;;;;8.50;7.10;;;21.80;99.90;;;;;;5034964;28;20426;-66
2021/09/06 11:17:57;;;;;;;8.23;6.97;;;22.10;99.90;;;;;;5034741;28;20412;-67
2021/09/06 11:20:23;;;;;;;8.00;6.97;;;21.70;99.90;;;;;;5034606;28;20413;-68
2021/09/06 11:22:49;;;;;;;10.63;6.43;;;22.10;99.90;;;;;;5034376;28;20455;-67
2021/09/06 11:25:23;;;;;;;9.67;7.10;;;22.20;99.90;;;;;;5034727;28;20423;-68
2021/09/06 11:27:50;;;;;;;8.97;6.67;;;22.40;99.90;;;;;;5034516;28;20667;-68
2021/09/06 11:30:24;;;;;;;8.33;7.03;;;22.20;99.90;;;;;;5034506;28;20916;-68
2021/09/06 11:32:51;;;;;;;9.53;7.03;;;22.00;99.90;;;;;;5034508;28;20424;-68
2021/09/06 11:35:19;;;;;;;8.30;6.63;;;22.00;99.90;;;;;;5034498;28;20416;-68
2021/09/06 11:37:49;;;;;;;6.97;6.27;;;22.20;99.90;;;;;;5034637;28;20499;-68
2021/09/06 11:40:15;;;;;;;9.13;7.10;;;22.60;99.90;;;;;;5034517;28;20579;-68
2021/09/06 11:42:40;;;;;;;12.50;7.30;;;22.80;99.90;;;;;;5034324;28;20519;-68
2021/09/06 11:45:09;;;;;;;9.30;6.27;;;22.70;99.90;;;;;;5034467;28;20187;-69
2021/09/06 11:47:38;;;;;;;7.27;5.40;;;22.70;99.90;;;;;;5034139;28;20167;-69
2021/09/06 11:50:09;;;;;;;8.43;7.03;;;22.80;99.90;;;;;;5034046;28;20408;-68
2021/09/06 11:52:37;;;;;;;8.13;5.80;;;22.70;99.90;;;;;;5033276;28;20765;-69
2021/09/06 11:55:09;;;;;;;8.83;6.17;;;22.60;99.90;;;;;;5034359;28;20451;-70
2021/09/06 11:57:38;;;;;;;7.57;6.60;;;22.70;99.90;;;;;;5033993;28;20397;-70
2021/09/06 12:00:19;;;;;;;5.90;5.30;;;22.60;99.90;;;;;;5030072;28;20418;-69
2021/09/06 12:02:48;;;;;;;7.03;5.90;;;22.90;99.90;;;;;;5016846;28;20868;-70
2021/09/06 12:05:17;;;;;;;7.07;5.93;;;23.10;99.90;;;;;;5034566;28;20459;-70
2021/09/06 12:07:54;;;;;;;6.60;6.00;;;23.00;99.90;;;;;;5034715;28;20406;-71
2021/09/06 12:10:24;;;;;;;8.07;5.73;;;22.80;99.90;;;;;;5034050;28;20459;-69
2021/09/06 12:12:57;;;;;;;9.80;7.17;;;22.60;99.90;;;;;;5033617;28;20445;-69
2021/09/06 12:15:22;;;;;;;7.20;6.30;;;22.40;99.90;;;;;;5034038;28;20409;-70
2021/09/06 12:17:48;;;;;;;7.43;6.10;;;22.30;99.90;;;;;;5034259;28;20485;-70
2021/09/06 12:20:27;;;;;;;8.70;6.63;;;22.60;99.90;;;;;;5034431;28;20684;-70
2021/09/06 12:22:54;;;;;;;7.73;6.53;;;22.80;99.90;;;;;;5033892;28;20269;-70
2021/09/06 12:25:24;;;;;;;8.37;6.93;;;22.50;99.90;;;;;;5033587;28;20414;-70
2021/09/06 12:27:49;;;;;;;6.93;6.23;;;22.80;99.90;;;;;;5033717;28;20904;-69
2021/09/06 12:30:15;;;;;;;8.80;6.77;;;22.90;99.90;;;;;;5033584;28;20415;-70
2021/09/06 12:32:43;;;;;;;8.03;6.63;;;23.00;99.90;;;;;;5033663;28;20194;-69
2021/09/06 12:35:09;;;;;;;8.00;7.20;;;22.90;99.90;;;;;;5033445;28;20175;-69
2021/09/06 12:37:43;;;;;;;8.03;6.13;;;22.70;99.90;;;;;;5033724;28;20455;-70
2021/09/06 12:40:12;;;;;;;7.50;6.70;;;22.60;99.90;;;;;;5033781;28;20508;-69
2021/09/06 12:42:41;;;;;;;6.93;6.23;;;22.30;99.90;;;;;;5015505;28;20922;-74